sensor_id;sensor_type;location;lat;lon;timestamp;P1;durP1;ratioP1;P2;durP2;ratioP2
20114;SDS011;10218;42.874;25.320;2023-05-29T00:02:09;20.37;;;12.10;;
20114;SDS011;10218;42.874;25.320;2023-05-29T00:04:36;16.77;;;11.50;;
20114;SDS011;10218;42.874;25.320;2023-05-29T00:07:04;16.87;;;12.70;;
20114;SDS011;10218;42.874;25.320;2023-05-29T00:09:31;16.83;;;11.97;;
20114;SDS011;10218;42.874;25.320;2023-05-29T00:11:58;18.13;;;12.23;;
20114;SDS011;10218;42.874;25.320;2023-05-29T00:14:27;17.80;;;12.70;;
20114;SDS011;10218;42.874;25.320;2023-05-29T00:16:54;17.27;;;12.30;;
20114;SDS011;10218;42.874;25.320;2023-05-29T00:19:23;18.77;;;12.87;;
20114;SDS011;10218;42.874;25.320;2023-05-29T00:21:51;16.03;;;11.67;;
20114;SDS011;10218;42.874;25.320;2023-05-29T00:24:18;18.30;;;12.17;;
20114;SDS011;10218;42.874;25.320;2023-05-29T00:26:47;15.30;;;11.73;;
20114;SDS011;10218;42.874;25.320;2023-05-29T00:29:14;17.10;;;12.30;;
20114;SDS011;10218;42.874;25.320;2023-05-29T00:31:41;17.37;;;12.33;;
20114;SDS011;10218;42.874;25.320;2023-05-29T00:34:09;20.43;;;13.60;;
20114;SDS011;10218;42.874;25.320;2023-05-29T00:36:36;19.97;;;13.83;;
20114;SDS011;10218;42.874;25.320;2023-05-29T00:39:03;20.57;;;13.33;;
20114;SDS011;10218;42.874;25.320;2023-05-29T00:41:30;17.83;;;12.37;;
20114;SDS011;10218;42.874;25.320;2023-05-29T00:43:57;19.10;;;13.27;;
20114;SDS011;10218;42.874;25.320;2023-05-29T00:46:25;18.43;;;13.60;;
20114;SDS011;10218;42.874;25.320;2023-05-29T00:48:52;25.10;;;14.23;;
20114;SDS011;10218;42.874;25.320;2023-05-29T00:51:20;21.83;;;14.60;;
20114;SDS011;10218;42.874;25.320;2023-05-29T00:53:47;26.23;;;15.70;;
20114;SDS011;10218;42.874;25.320;2023-05-29T00:56:17;28.43;;;14.70;;
20114;SDS011;10218;42.874;25.320;2023-05-29T00:58:50;21.47;;;14.40;;
20114;SDS011;10218;42.874;25.320;2023-05-29T01:01:19;23.10;;;14.43;;
20114;SDS011;10218;42.874;25.320;2023-05-29T01:03:48;26.10;;;15.63;;
20114;SDS011;10218;42.874;25.320;2023-05-29T01:06:15;20.40;;;14.70;;
20114;SDS011;10218;42.874;25.320;2023-05-29T01:08:43;24.63;;;14.43;;
20114;SDS011;10218;42.874;25.320;2023-05-29T01:28:49;20.50;;;14.50;;
20114;SDS011;10218;42.874;25.320;2023-05-29T01:31:23;21.17;;;14.40;;
20114;SDS011;10218;42.874;25.320;2023-05-29T01:33:55;22.03;;;15.13;;
20114;SDS011;10218;42.874;25.320;2023-05-29T01:36:24;19.43;;;14.17;;
20114;SDS011;10218;42.874;25.320;2023-05-29T01:38:53;21.30;;;14.90;;
20114;SDS011;10218;42.874;25.320;2023-05-29T01:41:23;19.53;;;14.17;;
20114;SDS011;10218;42.874;25.320;2023-05-29T01:43:51;21.03;;;14.37;;
20114;SDS011;10218;42.874;25.320;2023-05-29T01:46:19;16.67;;;12.97;;
20114;SDS011;10218;42.874;25.320;2023-05-29T01:48:48;21.50;;;14.23;;
20114;SDS011;10218;42.874;25.320;2023-05-29T01:51:15;17.23;;;13.40;;
20114;SDS011;10218;42.874;25.320;2023-05-29T01:53:44;18.80;;;13.27;;
20114;SDS011;10218;42.874;25.320;2023-05-29T01:56:12;23.10;;;14.20;;
20114;SDS011;10218;42.874;25.320;2023-05-29T01:58:39;21.03;;;14.27;;
20114;SDS011;10218;42.874;25.320;2023-05-29T02:01:07;18.60;;;13.90;;
20114;SDS011;10218;42.874;25.320;2023-05-29T02:03:35;17.37;;;13.03;;
20114;SDS011;10218;42.874;25.320;2023-05-29T02:06:02;23.30;;;13.37;;
20114;SDS011;10218;42.874;25.320;2023-05-29T02:08:29;16.47;;;13.20;;
20114;SDS011;10218;42.874;25.320;2023-05-29T02:10:57;18.93;;;13.13;;
20114;SDS011;10218;42.874;25.320;2023-05-29T02:13:24;19.10;;;13.10;;
20114;SDS011;10218;42.874;25.320;2023-05-29T02:15:51;18.10;;;14.00;;
20114;SDS011;10218;42.874;25.320;2023-05-29T02:18:18;18.53;;;14.00;;
20114;SDS011;10218;42.874;25.320;2023-05-29T02:20:45;18.33;;;14.00;;
20114;SDS011;10218;42.874;25.320;2023-05-29T02:23:17;20.73;;;14.17;;
20114;SDS011;10218;42.874;25.320;2023-05-29T02:25:46;21.80;;;14.30;;
20114;SDS011;10218;42.874;25.320;2023-05-29T02:28:13;18.97;;;14.07;;
20114;SDS011;10218;42.874;25.320;2023-05-29T02:30:41;21.40;;;15.07;;
20114;SDS011;10218;42.874;25.320;2023-05-29T02:33:08;21.50;;;15.00;;
20114;SDS011;10218;42.874;25.320;2023-05-29T02:35:35;20.47;;;14.40;;
20114;SDS011;10218;42.874;25.320;2023-05-29T02:38:03;21.53;;;15.50;;
20114;SDS011;10218;42.874;25.320;2023-05-29T02:40:30;23.83;;;15.93;;
20114;SDS011;10218;42.874;25.320;2023-05-29T02:42:57;23.13;;;15.10;;
20114;SDS011;10218;42.874;25.320;2023-05-29T02:45:24;20.30;;;14.43;;
20114;SDS011;10218;42.874;25.320;2023-05-29T02:47:52;21.70;;;14.83;;
20114;SDS011;10218;42.874;25.320;2023-05-29T02:50:19;21.77;;;15.43;;
20114;SDS011;10218;42.874;25.320;2023-05-29T02:52:47;20.50;;;14.70;;
20114;SDS011;10218;42.874;25.320;2023-05-29T02:55:13;21.17;;;14.00;;
20114;SDS011;10218;42.874;25.320;2023-05-29T02:57:42;21.57;;;14.10;;
20114;SDS011;10218;42.874;25.320;2023-05-29T03:00:09;22.23;;;14.57;;
20114;SDS011;10218;42.874;25.320;2023-05-29T03:02:37;21.43;;;15.03;;
20114;SDS011;10218;42.874;25.320;2023-05-29T03:05:04;20.03;;;14.33;;
20114;SDS011;10218;42.874;25.320;2023-05-29T03:07:33;21.10;;;14.30;;
20114;SDS011;10218;42.874;25.320;2023-05-29T03:10:00;19.03;;;14.33;;
20114;SDS011;10218;42.874;25.320;2023-05-29T03:12:28;21.90;;;15.17;;
20114;SDS011;10218;42.874;25.320;2023-05-29T03:14:56;22.40;;;14.40;;
20114;SDS011;10218;42.874;25.320;2023-05-29T03:17:24;20.10;;;14.67;;
20114;SDS011;10218;42.874;25.320;2023-05-29T03:19:51;19.00;;;13.70;;
20114;SDS011;10218;42.874;25.320;2023-05-29T03:22:18;21.03;;;14.33;;
20114;SDS011;10218;42.874;25.320;2023-05-29T03:24:46;22.53;;;15.00;;
20114;SDS011;10218;42.874;25.320;2023-05-29T03:27:13;26.10;;;16.37;;
20114;SDS011;10218;42.874;25.320;2023-05-29T03:29:40;21.70;;;15.37;;
20114;SDS011;10218;42.874;25.320;2023-05-29T03:32:07;22.10;;;15.43;;
20114;SDS011;10218;42.874;25.320;2023-05-29T03:34:34;25.20;;;16.87;;
20114;SDS011;10218;42.874;25.320;2023-05-29T03:37:02;22.37;;;16.07;;
20114;SDS011;10218;42.874;25.320;2023-05-29T03:39:29;21.77;;;15.57;;
20114;SDS011;10218;42.874;25.320;2023-05-29T03:41:57;23.40;;;16.07;;
20114;SDS011;10218;42.874;25.320;2023-05-29T03:44:24;22.80;;;15.13;;
20114;SDS011;10218;42.874;25.320;2023-05-29T03:46:51;26.93;;;16.07;;
20114;SDS011;10218;42.874;25.320;2023-05-29T03:49:18;21.40;;;16.27;;
20114;SDS011;10218;42.874;25.320;2023-05-29T03:51:46;21.43;;;15.20;;
20114;SDS011;10218;42.874;25.320;2023-05-29T03:54:13;21.80;;;15.93;;
20114;SDS011;10218;42.874;25.320;2023-05-29T03:56:41;19.10;;;15.63;;
20114;SDS011;10218;42.874;25.320;2023-05-29T03:59:09;23.60;;;16.90;;
20114;SDS011;10218;42.874;25.320;2023-05-29T04:01:37;21.50;;;15.53;;
20114;SDS011;10218;42.874;25.320;2023-05-29T04:04:04;21.50;;;15.30;;
20114;SDS011;10218;42.874;25.320;2023-05-29T04:06:31;22.67;;;16.17;;
20114;SDS011;10218;42.874;25.320;2023-05-29T04:08:58;27.63;;;17.30;;
20114;SDS011;10218;42.874;25.320;2023-05-29T04:11:27;22.37;;;15.83;;
20114;SDS011;10218;42.874;25.320;2023-05-29T04:13:54;24.23;;;16.53;;
20114;SDS011;10218;42.874;25.320;2023-05-29T04:16:22;28.90;;;17.43;;
20114;SDS011;10218;42.874;25.320;2023-05-29T04:18:49;25.43;;;15.70;;
20114;SDS011;10218;42.874;25.320;2023-05-29T04:21:18;28.23;;;16.23;;
20114;SDS011;10218;42.874;25.320;2023-05-29T04:23:46;21.73;;;16.47;;
20114;SDS011;10218;42.874;25.320;2023-05-29T04:26:14;23.73;;;16.87;;
20114;SDS011;10218;42.874;25.320;2023-05-29T04:28:41;23.60;;;16.53;;
20114;SDS011;10218;42.874;25.320;2023-05-29T04:31:09;28.67;;;16.77;;
20114;SDS011;10218;42.874;25.320;2023-05-29T04:33:41;28.10;;;17.00;;
20114;SDS011;10218;42.874;25.320;2023-05-29T04:36:08;21.23;;;16.33;;
20114;SDS011;10218;42.874;25.320;2023-05-29T04:38:35;27.47;;;16.97;;
20114;SDS011;10218;42.874;25.320;2023-05-29T04:41:03;21.93;;;16.17;;
20114;SDS011;10218;42.874;25.320;2023-05-29T04:43:31;25.13;;;17.63;;
20114;SDS011;10218;42.874;25.320;2023-05-29T04:46:03;28.00;;;16.50;;
20114;SDS011;10218;42.874;25.320;2023-05-29T04:48:31;23.73;;;16.73;;
20114;SDS011;10218;42.874;25.320;2023-05-29T04:50:59;26.60;;;16.20;;
20114;SDS011;10218;42.874;25.320;2023-05-29T04:53:26;26.07;;;15.97;;
20114;SDS011;10218;42.874;25.320;2023-05-29T04:55:53;25.00;;;17.60;;
20114;SDS011;10218;42.874;25.320;2023-05-29T04:58:20;28.20;;;17.00;;
20114;SDS011;10218;42.874;25.320;2023-05-29T05:00:48;24.87;;;16.77;;
20114;SDS011;10218;42.874;25.320;2023-05-29T05:03:15;30.37;;;16.37;;
20114;SDS011;10218;42.874;25.320;2023-05-29T05:05:43;24.23;;;16.90;;
20114;SDS011;10218;42.874;25.320;2023-05-29T05:08:11;26.07;;;17.40;;
20114;SDS011;10218;42.874;25.320;2023-05-29T05:10:38;22.33;;;17.37;;
20114;SDS011;10218;42.874;25.320;2023-05-29T05:13:06;27.53;;;17.47;;
20114;SDS011;10218;42.874;25.320;2023-05-29T05:15:35;22.60;;;16.63;;
20114;SDS011;10218;42.874;25.320;2023-05-29T05:18:02;23.93;;;16.90;;
20114;SDS011;10218;42.874;25.320;2023-05-29T05:20:31;24.63;;;16.60;;
20114;SDS011;10218;42.874;25.320;2023-05-29T05:22:58;27.23;;;16.40;;
20114;SDS011;10218;42.874;25.320;2023-05-29T05:25:26;22.27;;;16.67;;
20114;SDS011;10218;42.874;25.320;2023-05-29T05:27:53;21.73;;;15.83;;
20114;SDS011;10218;42.874;25.320;2023-05-29T05:30:21;23.53;;;16.60;;
20114;SDS011;10218;42.874;25.320;2023-05-29T05:32:48;22.27;;;16.07;;
20114;SDS011;10218;42.874;25.320;2023-05-29T05:35:16;21.57;;;15.77;;
20114;SDS011;10218;42.874;25.320;2023-05-29T05:37:43;26.80;;;15.93;;
20114;SDS011;10218;42.874;25.320;2023-05-29T05:40:10;22.90;;;15.83;;
20114;SDS011;10218;42.874;25.320;2023-05-29T05:42:39;27.47;;;17.50;;
20114;SDS011;10218;42.874;25.320;2023-05-29T05:45:07;22.50;;;16.50;;
20114;SDS011;10218;42.874;25.320;2023-05-29T05:47:35;21.97;;;16.90;;
20114;SDS011;10218;42.874;25.320;2023-05-29T05:50:02;24.43;;;16.50;;
20114;SDS011;10218;42.874;25.320;2023-05-29T05:52:30;22.00;;;16.13;;
20114;SDS011;10218;42.874;25.320;2023-05-29T05:54:59;26.43;;;16.53;;
20114;SDS011;10218;42.874;25.320;2023-05-29T05:57:27;22.23;;;16.00;;
20114;SDS011;10218;42.874;25.320;2023-05-29T05:59:55;22.27;;;16.20;;
20114;SDS011;10218;42.874;25.320;2023-05-29T06:02:22;22.67;;;15.93;;
20114;SDS011;10218;42.874;25.320;2023-05-29T06:04:50;23.43;;;16.03;;
20114;SDS011;10218;42.874;25.320;2023-05-29T06:07:17;23.17;;;15.83;;
20114;SDS011;10218;42.874;25.320;2023-05-29T06:09:45;24.17;;;16.17;;
20114;SDS011;10218;42.874;25.320;2023-05-29T06:12:12;24.80;;;17.03;;
20114;SDS011;10218;42.874;25.320;2023-05-29T06:14:41;21.73;;;16.90;;
20114;SDS011;10218;42.874;25.320;2023-05-29T06:17:08;25.67;;;16.13;;
20114;SDS011;10218;42.874;25.320;2023-05-29T06:19:35;20.63;;;14.67;;
20114;SDS011;10218;42.874;25.320;2023-05-29T06:22:03;19.33;;;14.50;;
20114;SDS011;10218;42.874;25.320;2023-05-29T06:24:30;22.27;;;15.50;;
20114;SDS011;10218;42.874;25.320;2023-05-29T06:26:58;19.80;;;14.43;;
20114;SDS011;10218;42.874;25.320;2023-05-29T06:29:25;24.40;;;16.17;;
20114;SDS011;10218;42.874;25.320;2023-05-29T06:31:53;26.60;;;16.30;;
20114;SDS011;10218;42.874;25.320;2023-05-29T06:34:20;22.03;;;16.10;;
20114;SDS011;10218;42.874;25.320;2023-05-29T06:36:47;22.23;;;16.33;;
20114;SDS011;10218;42.874;25.320;2023-05-29T06:39:15;23.63;;;17.93;;
20114;SDS011;10218;42.874;25.320;2023-05-29T06:41:42;22.73;;;16.90;;
20114;SDS011;10218;42.874;25.320;2023-05-29T06:44:16;20.33;;;15.77;;
20114;SDS011;10218;42.874;25.320;2023-05-29T06:46:43;23.23;;;16.47;;
20114;SDS011;10218;42.874;25.320;2023-05-29T06:49:10;24.17;;;16.53;;
20114;SDS011;10218;42.874;25.320;2023-05-29T06:51:37;23.27;;;16.80;;
20114;SDS011;10218;42.874;25.320;2023-05-29T06:54:07;23.33;;;16.77;;
20114;SDS011;10218;42.874;25.320;2023-05-29T06:56:34;23.23;;;17.43;;
20114;SDS011;10218;42.874;25.320;2023-05-29T06:59:01;24.30;;;17.40;;
20114;SDS011;10218;42.874;25.320;2023-05-29T07:01:29;26.00;;;17.53;;
20114;SDS011;10218;42.874;25.320;2023-05-29T07:03:57;26.90;;;17.87;;
20114;SDS011;10218;42.874;25.320;2023-05-29T07:06:24;28.13;;;18.03;;
20114;SDS011;10218;42.874;25.320;2023-05-29T07:08:52;30.90;;;19.77;;
20114;SDS011;10218;42.874;25.320;2023-05-29T07:11:19;29.80;;;20.67;;
20114;SDS011;10218;42.874;25.320;2023-05-29T07:13:47;43.87;;;23.90;;
20114;SDS011;10218;42.874;25.320;2023-05-29T07:16:14;28.77;;;20.40;;
20114;SDS011;10218;42.874;25.320;2023-05-29T07:18:50;31.67;;;20.00;;
20114;SDS011;10218;42.874;25.320;2023-05-29T07:21:17;31.33;;;19.73;;
20114;SDS011;10218;42.874;25.320;2023-05-29T07:23:45;28.07;;;19.40;;
20114;SDS011;10218;42.874;25.320;2023-05-29T07:26:12;30.83;;;19.93;;
20114;SDS011;10218;42.874;25.320;2023-05-29T07:28:40;29.17;;;18.07;;
20114;SDS011;10218;42.874;25.320;2023-05-29T07:31:07;24.33;;;17.03;;
20114;SDS011;10218;42.874;25.320;2023-05-29T07:33:34;26.43;;;17.43;;
20114;SDS011;10218;42.874;25.320;2023-05-29T07:36:01;25.63;;;17.70;;
20114;SDS011;10218;42.874;25.320;2023-05-29T07:38:29;24.30;;;18.87;;
20114;SDS011;10218;42.874;25.320;2023-05-29T07:40:56;30.27;;;18.60;;
20114;SDS011;10218;42.874;25.320;2023-05-29T07:43:24;24.27;;;17.97;;
20114;SDS011;10218;42.874;25.320;2023-05-29T07:45:51;24.07;;;18.30;;
20114;SDS011;10218;42.874;25.320;2023-05-29T07:48:19;19.73;;;16.07;;
20114;SDS011;10218;42.874;25.320;2023-05-29T07:50:48;25.40;;;15.83;;
20114;SDS011;10218;42.874;25.320;2023-05-29T07:53:15;21.30;;;16.03;;
20114;SDS011;10218;42.874;25.320;2023-05-29T07:55:43;23.17;;;17.93;;
20114;SDS011;10218;42.874;25.320;2023-05-29T07:58:10;22.47;;;16.53;;
20114;SDS011;10218;42.874;25.320;2023-05-29T08:00:39;19.30;;;14.90;;
20114;SDS011;10218;42.874;25.320;2023-05-29T08:03:06;18.50;;;15.03;;
20114;SDS011;10218;42.874;25.320;2023-05-29T08:05:37;26.30;;;15.27;;
20114;SDS011;10218;42.874;25.320;2023-05-29T08:08:05;21.73;;;14.87;;
20114;SDS011;10218;42.874;25.320;2023-05-29T08:10:33;18.53;;;14.50;;
20114;SDS011;10218;42.874;25.320;2023-05-29T08:13:01;17.97;;;14.60;;
20114;SDS011;10218;42.874;25.320;2023-05-29T08:15:29;19.63;;;14.90;;
20114;SDS011;10218;42.874;25.320;2023-05-29T08:17:57;17.33;;;13.40;;
20114;SDS011;10218;42.874;25.320;2023-05-29T08:20:24;14.27;;;12.40;;
20114;SDS011;10218;42.874;25.320;2023-05-29T08:22:52;18.43;;;12.83;;
20114;SDS011;10218;42.874;25.320;2023-05-29T08:25:19;14.50;;;11.87;;
20114;SDS011;10218;42.874;25.320;2023-05-29T08:27:46;18.03;;;13.47;;
20114;SDS011;10218;42.874;25.320;2023-05-29T08:30:13;16.60;;;12.20;;
20114;SDS011;10218;42.874;25.320;2023-05-29T08:32:40;16.57;;;12.07;;
20114;SDS011;10218;42.874;25.320;2023-05-29T08:35:07;14.90;;;10.77;;
20114;SDS011;10218;42.874;25.320;2023-05-29T08:37:35;16.23;;;10.77;;
20114;SDS011;10218;42.874;25.320;2023-05-29T08:40:02;14.93;;;11.43;;
20114;SDS011;10218;42.874;25.320;2023-05-29T08:42:48;14.53;;;10.97;;
20114;SDS011;10218;42.874;25.320;2023-05-29T08:45:25;12.70;;;9.67;;
20114;SDS011;10218;42.874;25.320;2023-05-29T08:47:53;13.60;;;11.30;;
20114;SDS011;10218;42.874;25.320;2023-05-29T08:50:21;11.60;;;9.67;;
20114;SDS011;10218;42.874;25.320;2023-05-29T08:52:48;10.83;;;9.13;;
20114;SDS011;10218;42.874;25.320;2023-05-29T08:55:15;12.53;;;10.20;;
20114;SDS011;10218;42.874;25.320;2023-05-29T08:57:43;13.03;;;10.87;;
20114;SDS011;10218;42.874;25.320;2023-05-29T09:00:13;16.03;;;10.87;;
20114;SDS011;10218;42.874;25.320;2023-05-29T09:02:45;14.83;;;12.37;;
20114;SDS011;10218;42.874;25.320;2023-05-29T09:05:12;16.03;;;11.83;;
20114;SDS011;10218;42.874;25.320;2023-05-29T09:07:39;12.90;;;11.20;;
20114;SDS011;10218;42.874;25.320;2023-05-29T09:10:10;15.33;;;12.30;;
20114;SDS011;10218;42.874;25.320;2023-05-29T09:12:38;13.53;;;10.43;;
20114;SDS011;10218;42.874;25.320;2023-05-29T09:15:27;12.47;;;10.33;;
20114;SDS011;10218;42.874;25.320;2023-05-29T09:17:55;16.33;;;10.93;;
20114;SDS011;10218;42.874;25.320;2023-05-29T09:20:25;16.97;;;10.47;;
20114;SDS011;10218;42.874;25.320;2023-05-29T09:22:53;14.50;;;11.70;;
20114;SDS011;10218;42.874;25.320;2023-05-29T09:25:25;19.30;;;14.40;;
20114;SDS011;10218;42.874;25.320;2023-05-29T09:28:01;21.80;;;15.47;;
20114;SDS011;10218;42.874;25.320;2023-05-29T09:30:38;19.37;;;15.43;;
20114;SDS011;10218;42.874;25.320;2023-05-29T09:33:13;22.20;;;15.33;;
20114;SDS011;10218;42.874;25.320;2023-05-29T09:35:47;18.77;;;14.87;;
20114;SDS011;10218;42.874;25.320;2023-05-29T09:38:16;17.47;;;14.20;;
20114;SDS011;10218;42.874;25.320;2023-05-29T09:40:47;17.37;;;14.00;;
20114;SDS011;10218;42.874;25.320;2023-05-29T09:43:15;15.90;;;13.27;;
20114;SDS011;10218;42.874;25.320;2023-05-29T09:45:47;16.03;;;13.07;;
20114;SDS011;10218;42.874;25.320;2023-05-29T09:48:22;18.57;;;12.90;;
20114;SDS011;10218;42.874;25.320;2023-05-29T09:50:50;13.20;;;11.40;;
20114;SDS011;10218;42.874;25.320;2023-05-29T09:53:18;13.13;;;11.37;;
20114;SDS011;10218;42.874;25.320;2023-05-29T09:55:51;12.70;;;10.57;;
20114;SDS011;10218;42.874;25.320;2023-05-29T09:58:23;14.37;;;9.00;;
20114;SDS011;10218;42.874;25.320;2023-05-29T10:00:51;16.33;;;11.20;;
20114;SDS011;10218;42.874;25.320;2023-05-29T10:03:20;47.50;;;27.20;;
20114;SDS011;10218;42.874;25.320;2023-05-29T10:05:50;11.07;;;9.10;;
20114;SDS011;10218;42.874;25.320;2023-05-29T10:08:21;13.53;;;10.77;;
20114;SDS011;10218;42.874;25.320;2023-05-29T10:10:51;7.90;;;6.27;;
20114;SDS011;10218;42.874;25.320;2023-05-29T10:13:33;8.27;;;7.03;;
20114;SDS011;10218;42.874;25.320;2023-05-29T10:16:03;10.27;;;7.40;;
20114;SDS011;10218;42.874;25.320;2023-05-29T10:18:38;7.13;;;5.83;;
20114;SDS011;10218;42.874;25.320;2023-05-29T10:21:08;8.70;;;7.13;;
20114;SDS011;10218;42.874;25.320;2023-05-29T10:23:40;8.40;;;7.00;;
20114;SDS011;10218;42.874;25.320;2023-05-29T10:26:13;9.23;;;6.83;;
20114;SDS011;10218;42.874;25.320;2023-05-29T10:28:44;9.30;;;7.70;;
20114;SDS011;10218;42.874;25.320;2023-05-29T10:31:19;10.13;;;6.60;;
20114;SDS011;10218;42.874;25.320;2023-05-29T10:42:43;7.60;;;6.67;;
20114;SDS011;10218;42.874;25.320;2023-05-29T10:47:56;9.27;;;6.60;;
20114;SDS011;10218;42.874;25.320;2023-05-29T10:50:43;8.63;;;6.47;;
20114;SDS011;10218;42.874;25.320;2023-05-29T10:53:16;8.77;;;7.10;;
20114;SDS011;10218;42.874;25.320;2023-05-29T10:55:45;8.43;;;6.87;;
20114;SDS011;10218;42.874;25.320;2023-05-29T10:58:13;8.63;;;6.27;;
20114;SDS011;10218;42.874;25.320;2023-05-29T11:00:45;9.00;;;7.53;;
20114;SDS011;10218;42.874;25.320;2023-05-29T11:03:20;9.80;;;6.90;;
20114;SDS011;10218;42.874;25.320;2023-05-29T11:13:57;8.17;;;5.60;;
20114;SDS011;10218;42.874;25.320;2023-05-29T11:19:08;8.33;;;5.97;;
20114;SDS011;10218;42.874;25.320;2023-05-29T11:24:05;8.80;;;6.43;;
20114;SDS011;10218;42.874;25.320;2023-05-29T11:26:33;9.03;;;6.73;;
20114;SDS011;10218;42.874;25.320;2023-05-29T11:29:03;8.17;;;7.00;;
20114;SDS011;10218;42.874;25.320;2023-05-29T11:31:37;10.80;;;7.67;;
20114;SDS011;10218;42.874;25.320;2023-05-29T11:34:09;8.87;;;7.10;;
20114;SDS011;10218;42.874;25.320;2023-05-29T11:36:40;8.47;;;7.27;;
20114;SDS011;10218;42.874;25.320;2023-05-29T11:39:10;9.37;;;8.20;;
20114;SDS011;10218;42.874;25.320;2023-05-29T11:41:37;9.10;;;7.90;;
20114;SDS011;10218;42.874;25.320;2023-05-29T11:44:05;13.33;;;9.03;;
20114;SDS011;10218;42.874;25.320;2023-05-29T11:46:32;10.33;;;8.43;;
20114;SDS011;10218;42.874;25.320;2023-05-29T11:49:01;10.00;;;8.77;;
20114;SDS011;10218;42.874;25.320;2023-05-29T11:51:28;12.47;;;9.03;;
20114;SDS011;10218;42.874;25.320;2023-05-29T11:53:55;9.87;;;8.67;;
20114;SDS011;10218;42.874;25.320;2023-05-29T11:56:26;14.13;;;10.07;;
20114;SDS011;10218;42.874;25.320;2023-05-29T11:58:55;14.77;;;9.90;;
20114;SDS011;10218;42.874;25.320;2023-05-29T12:01:27;12.57;;;10.10;;
20114;SDS011;10218;42.874;25.320;2023-05-29T12:03:55;9.90;;;8.90;;
20114;SDS011;10218;42.874;25.320;2023-05-29T12:06:32;12.77;;;9.00;;
20114;SDS011;10218;42.874;25.320;2023-05-29T12:09:01;12.80;;;9.30;;
20114;SDS011;10218;42.874;25.320;2023-05-29T12:11:30;10.77;;;8.50;;
20114;SDS011;10218;42.874;25.320;2023-05-29T12:13:58;11.53;;;9.53;;
20114;SDS011;10218;42.874;25.320;2023-05-29T12:16:29;13.00;;;9.30;;
20114;SDS011;10218;42.874;25.320;2023-05-29T12:18:59;15.10;;;10.53;;
20114;SDS011;10218;42.874;25.320;2023-05-29T12:21:27;15.67;;;11.23;;
20114;SDS011;10218;42.874;25.320;2023-05-29T12:23:54;11.17;;;10.03;;
20114;SDS011;10218;42.874;25.320;2023-05-29T12:26:32;16.17;;;10.00;;
20114;SDS011;10218;42.874;25.320;2023-05-29T12:29:02;15.63;;;11.03;;
20114;SDS011;10218;42.874;25.320;2023-05-29T12:31:32;14.70;;;12.40;;
20114;SDS011;10218;42.874;25.320;2023-05-29T12:34:13;13.80;;;12.13;;
20114;SDS011;10218;42.874;25.320;2023-05-29T12:36:42;15.67;;;12.50;;
20114;SDS011;10218;42.874;25.320;2023-05-29T12:39:12;17.27;;;13.13;;
20114;SDS011;10218;42.874;25.320;2023-05-29T12:41:39;22.97;;;15.03;;
20114;SDS011;10218;42.874;25.320;2023-05-29T12:44:07;23.57;;;15.97;;
20114;SDS011;10218;42.874;25.320;2023-05-29T12:46:36;19.03;;;15.33;;
20114;SDS011;10218;42.874;25.320;2023-05-29T12:49:20;21.33;;;16.70;;
20114;SDS011;10218;42.874;25.320;2023-05-29T12:51:47;22.67;;;16.40;;
20114;SDS011;10218;42.874;25.320;2023-05-29T12:54:15;23.63;;;17.30;;
20114;SDS011;10218;42.874;25.320;2023-05-29T12:56:43;23.93;;;17.33;;
20114;SDS011;10218;42.874;25.320;2023-05-29T12:59:12;24.73;;;18.30;;
20114;SDS011;10218;42.874;25.320;2023-05-29T13:01:40;23.30;;;18.10;;
20114;SDS011;10218;42.874;25.320;2023-05-29T13:04:07;23.30;;;17.63;;
20114;SDS011;10218;42.874;25.320;2023-05-29T13:06:35;22.70;;;17.90;;
20114;SDS011;10218;42.874;25.320;2023-05-29T13:09:04;21.80;;;18.20;;
20114;SDS011;10218;42.874;25.320;2023-05-29T13:11:35;26.23;;;19.60;;
20114;SDS011;10218;42.874;25.320;2023-05-29T13:14:03;22.10;;;17.50;;
20114;SDS011;10218;42.874;25.320;2023-05-29T13:16:31;20.87;;;16.80;;
20114;SDS011;10218;42.874;25.320;2023-05-29T13:18:58;24.20;;;17.53;;
20114;SDS011;10218;42.874;25.320;2023-05-29T13:21:25;24.50;;;17.20;;
20114;SDS011;10218;42.874;25.320;2023-05-29T13:23:52;19.50;;;15.60;;
20114;SDS011;10218;42.874;25.320;2023-05-29T13:26:21;20.47;;;16.63;;
20114;SDS011;10218;42.874;25.320;2023-05-29T13:28:48;12.87;;;11.37;;
20114;SDS011;10218;42.874;25.320;2023-05-29T13:31:18;18.20;;;13.30;;
20114;SDS011;10218;42.874;25.320;2023-05-29T13:33:47;13.67;;;10.83;;
20114;SDS011;10218;42.874;25.320;2023-05-29T13:36:14;15.10;;;11.23;;
20114;SDS011;10218;42.874;25.320;2023-05-29T13:38:41;18.00;;;14.83;;
20114;SDS011;10218;42.874;25.320;2023-05-29T13:41:10;16.57;;;14.43;;
20114;SDS011;10218;42.874;25.320;2023-05-29T13:43:37;18.83;;;14.77;;
20114;SDS011;10218;42.874;25.320;2023-05-29T13:46:09;17.40;;;15.50;;
20114;SDS011;10218;42.874;25.320;2023-05-29T13:48:36;15.30;;;13.70;;
20114;SDS011;10218;42.874;25.320;2023-05-29T13:51:03;13.43;;;11.43;;
20114;SDS011;10218;42.874;25.320;2023-05-29T13:53:30;14.93;;;11.20;;
20114;SDS011;10218;42.874;25.320;2023-05-29T13:55:58;11.87;;;10.40;;
20114;SDS011;10218;42.874;25.320;2023-05-29T13:58:25;12.37;;;10.73;;
20114;SDS011;10218;42.874;25.320;2023-05-29T14:00:52;12.33;;;10.27;;
20114;SDS011;10218;42.874;25.320;2023-05-29T14:03:19;14.13;;;11.10;;
20114;SDS011;10218;42.874;25.320;2023-05-29T14:05:48;14.83;;;12.30;;
20114;SDS011;10218;42.874;25.320;2023-05-29T14:08:15;16.43;;;11.83;;
20114;SDS011;10218;42.874;25.320;2023-05-29T14:10:42;15.37;;;11.93;;
20114;SDS011;10218;42.874;25.320;2023-05-29T14:13:09;17.57;;;12.20;;
20114;SDS011;10218;42.874;25.320;2023-05-29T14:15:36;14.27;;;10.60;;
20114;SDS011;10218;42.874;25.320;2023-05-29T14:18:05;11.10;;;9.43;;
20114;SDS011;10218;42.874;25.320;2023-05-29T14:20:33;12.30;;;9.20;;
20114;SDS011;10218;42.874;25.320;2023-05-29T14:23:00;11.47;;;10.27;;
20114;SDS011;10218;42.874;25.320;2023-05-29T14:25:27;14.90;;;11.60;;
20114;SDS011;10218;42.874;25.320;2023-05-29T14:27:54;15.00;;;12.10;;
20114;SDS011;10218;42.874;25.320;2023-05-29T14:30:21;12.63;;;11.20;;
20114;SDS011;10218;42.874;25.320;2023-05-29T14:32:49;13.27;;;11.37;;
20114;SDS011;10218;42.874;25.320;2023-05-29T14:35:16;13.93;;;11.57;;
20114;SDS011;10218;42.874;25.320;2023-05-29T14:37:43;12.87;;;11.20;;
20114;SDS011;10218;42.874;25.320;2023-05-29T14:40:10;12.93;;;11.50;;
20114;SDS011;10218;42.874;25.320;2023-05-29T14:42:37;15.77;;;11.77;;
20114;SDS011;10218;42.874;25.320;2023-05-29T14:45:05;13.10;;;11.07;;
20114;SDS011;10218;42.874;25.320;2023-05-29T14:47:33;14.93;;;10.60;;
20114;SDS011;10218;42.874;25.320;2023-05-29T14:50:00;9.90;;;8.90;;
20114;SDS011;10218;42.874;25.320;2023-05-29T14:52:27;11.53;;;9.40;;
20114;SDS011;10218;42.874;25.320;2023-05-29T14:54:55;12.50;;;9.07;;
20114;SDS011;10218;42.874;25.320;2023-05-29T14:57:22;10.93;;;9.10;;
20114;SDS011;10218;42.874;25.320;2023-05-29T14:59:49;10.47;;;8.10;;
20114;SDS011;10218;42.874;25.320;2023-05-29T15:02:17;9.53;;;7.80;;